createdAt,value
2023-01-12T00:02:12.259Z,5.30
2023-01-12T00:04:40.490Z,5.29
2023-01-12T00:07:09.013Z,5.23
2023-01-12T00:09:37.530Z,5.31
2023-01-12T00:12:07.086Z,5.25
2023-01-12T00:14:35.106Z,5.28
2023-01-12T00:17:03.438Z,5.29
2023-01-12T00:19:33.445Z,5.23
2023-01-12T00:22:07.133Z,5.19
2023-01-12T00:24:36.887Z,5.25
2023-01-12T00:27:06.812Z,5.21
2023-01-12T00:29:34.903Z,5.27
2023-01-12T00:32:02.898Z,5.25
2023-01-12T00:34:32.340Z,5.29
2023-01-12T00:37:01.601Z,5.26
2023-01-12T00:39:29.544Z,5.26
2023-01-12T00:42:15.154Z,5.25
2023-01-12T00:45:00.665Z,5.25
2023-01-12T00:47:28.548Z,5.25
2023-01-12T00:49:57.753Z,5.22
2023-01-12T00:52:30.808Z,5.18
2023-01-12T00:54:59.521Z,5.19
2023-01-12T00:57:28.199Z,5.20
2023-01-12T00:59:58.307Z,5.19
2023-01-12T01:02:27.218Z,5.19
2023-01-12T01:04:55.106Z,5.14
2023-01-12T01:07:24.549Z,5.09
2023-01-12T01:09:52.804Z,5.04
2023-01-12T01:12:21.160Z,5.06
2023-01-12T01:14:49.608Z,5.11
2023-01-12T01:17:17.801Z,5.18
2023-01-12T01:19:45.743Z,5.18
2023-01-12T01:22:13.626Z,5.15
2023-01-12T01:24:43.345Z,5.12
2023-01-12T01:27:11.262Z,5.02
2023-01-12T01:29:39.036Z,4.96
2023-01-12T01:32:07.465Z,5.00
2023-01-12T01:34:35.637Z,5.02
2023-01-12T01:37:03.483Z,5.02
2023-01-12T01:39:31.399Z,4.80
2023-01-12T01:42:01.142Z,4.65
2023-01-12T01:44:51.770Z,4.55
2023-01-12T01:47:27.833Z,4.51
2023-01-12T01:49:58.659Z,4.56
2023-01-12T01:52:31.594Z,4.60
2023-01-12T01:55:03.985Z,4.60
2023-01-12T01:57:37.696Z,4.52
2023-01-12T02:00:08.897Z,4.71
2023-01-12T02:02:37.869Z,4.80
2023-01-12T02:05:06.656Z,4.82
2023-01-12T02:07:34.920Z,4.85
2023-01-12T02:10:03.215Z,4.86
2023-01-12T02:12:48.820Z,4.86
2023-01-12T02:15:36.404Z,4.87
2023-01-12T02:18:14.964Z,4.86
2023-01-12T02:20:52.247Z,4.90
2023-01-12T02:23:59.048Z,4.92
2023-01-12T02:27:08.819Z,4.80
2023-01-12T02:30:01.303Z,4.65
2023-01-12T02:32:39.603Z,4.35
2023-01-12T02:35:18.100Z,4.38
2023-01-12T02:37:51.890Z,4.17
2023-01-12T02:40:24.732Z,4.29
2023-01-12T02:43:02.750Z,4.29
2023-01-12T02:45:39.588Z,4.32
2023-01-12T02:48:15.261Z,4.31
2023-01-12T02:50:50.955Z,4.36
2023-01-12T02:53:24.266Z,4.42
2023-01-12T02:55:53.351Z,4.55
2023-01-12T02:58:25.303Z,4.61
2023-01-12T03:00:58.828Z,4.57
2023-01-12T03:03:28.301Z,4.53
2023-01-12T03:05:57.314Z,4.52
2023-01-12T03:08:29.009Z,4.64
2023-01-12T03:11:08.175Z,4.73
2023-01-12T03:13:40.615Z,4.78
2023-01-12T03:16:11.909Z,4.82
2023-01-12T03:18:45.656Z,4.80
2023-01-12T03:21:19.678Z,4.97
2023-01-12T03:23:50.395Z,5.02
2023-01-12T03:26:23.159Z,5.02
2023-01-12T03:28:57.112Z,5.11
2023-01-12T03:31:25.657Z,5.06
2023-01-12T03:33:55.573Z,5.13
2023-01-12T03:36:32.561Z,5.01
2023-01-12T03:39:07.228Z,5.06
2023-01-12T03:41:44.344Z,4.97
2023-01-12T03:44:18.840Z,5.17
2023-01-12T03:46:55.153Z,5.16
2023-01-12T03:49:32.850Z,5.17
2023-01-12T03:52:03.167Z,5.19
2023-01-12T03:54:33.285Z,5.20
2023-01-12T03:57:02.941Z,5.06
2023-01-12T03:59:30.871Z,5.17
2023-01-12T04:01:59.251Z,5.16
2023-01-12T04:04:28.485Z,5.18
2023-01-12T04:06:56.558Z,5.19
2023-01-12T04:09:25.817Z,5.11
2023-01-12T04:12:12.216Z,5.15
2023-01-12T04:14:41.292Z,5.12
2023-01-12T04:17:10.465Z,5.18
2023-01-12T04:19:39.685Z,5.16
2023-01-12T04:22:25.718Z,5.14
2023-01-12T04:24:53.704Z,5.10
2023-01-12T04:27:21.561Z,5.12
2023-01-12T04:29:49.391Z,5.16
2023-01-12T04:32:17.269Z,5.15
2023-01-12T04:34:47.075Z,5.09
2023-01-12T04:37:15.181Z,5.17
2023-01-12T04:39:43.092Z,5.15
2023-01-12T04:42:30.994Z,5.13
2023-01-12T04:44:58.835Z,5.12
2023-01-12T04:47:26.703Z,5.12
2023-01-12T04:49:55.888Z,5.13
2023-01-12T04:52:23.723Z,5.10
2023-01-12T04:54:51.580Z,5.12
2023-01-12T04:57:19.443Z,5.12
2023-01-12T04:59:47.359Z,5.17
2023-01-12T05:02:15.469Z,5.21
2023-01-12T05:04:43.663Z,5.25
2023-01-12T05:07:12.911Z,5.27
2023-01-12T05:09:58.079Z,5.26
2023-01-12T05:12:25.932Z,5.27
2023-01-12T05:14:53.761Z,5.27
2023-01-12T05:17:21.649Z,5.21
2023-01-12T05:19:49.685Z,5.24
2023-01-12T05:22:18.893Z,5.28
2023-01-12T05:24:46.783Z,5.30
2023-01-12T05:27:14.602Z,5.31
2023-01-12T05:29:42.559Z,5.34
2023-01-12T05:32:10.811Z,5.36
2023-01-12T05:34:38.629Z,5.34
2023-01-12T05:37:06.534Z,5.27
2023-01-12T05:39:36.052Z,5.26
2023-01-12T05:42:21.272Z,5.16
2023-01-12T05:44:49.186Z,5.21
2023-01-12T05:47:17.125Z,5.25
2023-01-12T05:49:45.009Z,5.29
2023-01-12T05:52:12.831Z,5.26
2023-01-12T05:54:42.051Z,5.30
2023-01-12T05:57:09.938Z,5.25
2023-01-12T05:59:37.813Z,5.20
2023-01-12T06:02:05.722Z,5.14
2023-01-12T06:04:33.681Z,5.14
2023-01-12T06:07:01.579Z,5.18
2023-01-12T06:09:29.483Z,5.21
2023-01-12T06:12:16.189Z,5.23
2023-01-12T06:14:44.099Z,5.17
2023-01-12T06:17:11.961Z,5.15
2023-01-12T06:19:40.038Z,5.16
2023-01-12T06:22:08.406Z,5.20
2023-01-12T06:24:36.273Z,5.21
2023-01-12T06:27:05.547Z,5.20
2023-01-12T06:29:33.385Z,5.18
2023-01-12T06:32:01.304Z,5.25
2023-01-12T06:34:34.675Z,5.24
2023-01-12T06:37:03.036Z,5.25
2023-01-12T06:39:31.139Z,5.23
2023-01-12T06:42:16.710Z,5.22
2023-01-12T06:44:47.664Z,5.22
2023-01-12T06:47:16.928Z,5.15
2023-01-12T06:49:44.862Z,5.21
2023-01-12T06:52:12.740Z,5.25
2023-01-12T06:54:40.730Z,5.25
2023-01-12T06:57:08.694Z,5.32
2023-01-12T06:59:38.839Z,5.19
2023-01-12T07:02:12.179Z,5.38
2023-01-12T07:04:40.446Z,5.39
2023-01-12T07:07:09.510Z,5.38
2023-01-12T07:09:37.785Z,5.40
2023-01-12T07:12:06.394Z,5.35
2023-01-12T07:14:34.342Z,5.38
2023-01-12T07:17:02.211Z,5.37
2023-01-12T07:19:31.467Z,5.36
2023-01-12T07:21:59.298Z,5.41
2023-01-12T07:24:27.203Z,5.42
2023-01-12T07:26:58.099Z,5.36
2023-01-12T07:29:25.998Z,5.43
2023-01-12T07:31:53.965Z,5.46
2023-01-12T07:34:22.416Z,5.47
2023-01-12T07:36:52.174Z,5.38
2023-01-12T07:39:20.237Z,5.46
2023-01-12T07:42:20.405Z,5.51
2023-01-12T07:44:48.291Z,5.53
2023-01-12T07:47:16.220Z,5.56
2023-01-12T07:49:44.129Z,5.62
2023-01-12T07:52:13.754Z,5.63
2023-01-12T07:54:41.693Z,5.72
2023-01-12T07:57:11.906Z,5.77
2023-01-12T07:59:39.814Z,5.81
2023-01-12T08:02:08.079Z,5.87
2023-01-12T08:04:36.053Z,5.91
2023-01-12T08:07:04.035Z,5.94
2023-01-12T08:09:33.339Z,5.95
2023-01-12T08:12:01.203Z,5.88
2023-01-12T08:14:33.315Z,5.84
2023-01-12T08:17:03.553Z,5.91
2023-01-12T08:19:38.551Z,5.95
2023-01-12T08:22:11.063Z,5.87
2023-01-12T08:24:44.988Z,5.87
2023-01-12T08:27:13.055Z,5.86
2023-01-12T08:29:44.943Z,5.81
2023-01-12T08:32:17.752Z,5.78
2023-01-12T08:34:49.181Z,5.65
2023-01-12T08:37:22.138Z,5.54
2023-01-12T08:40:28.283Z,5.60
2023-01-12T08:42:57.632Z,5.60
2023-01-12T08:45:25.523Z,5.56
2023-01-12T08:47:53.458Z,5.50
2023-01-12T08:50:21.425Z,5.48
2023-01-12T08:52:49.618Z,5.38
2023-01-12T08:55:18.863Z,5.44
2023-01-12T08:57:46.957Z,5.54
2023-01-12T09:00:15.956Z,5.49
2023-01-12T09:02:43.839Z,5.52
2023-01-12T09:05:11.925Z,5.56
2023-01-12T09:07:40.775Z,5.53
2023-01-12T09:10:09.658Z,5.70
2023-01-12T09:12:38.959Z,5.67
2023-01-12T09:15:08.141Z,5.56
2023-01-12T09:17:36.044Z,5.52
2023-01-12T09:20:04.167Z,5.78
2023-01-12T09:22:32.016Z,5.87
2023-01-12T09:24:59.848Z,5.87
2023-01-12T09:27:27.698Z,5.93
2023-01-12T09:29:57.116Z,6.03
2023-01-12T09:32:29.156Z,6.12
2023-01-12T09:35:03.943Z,6.28
2023-01-12T09:37:32.969Z,6.40
2023-01-12T09:40:00.854Z,6.48
2023-01-12T09:42:46.295Z,6.49
2023-01-12T09:45:38.905Z,6.58
2023-01-12T09:48:09.714Z,6.59
2023-01-12T09:50:40.461Z,6.63
2023-01-12T09:53:14.971Z,6.67
2023-01-12T09:55:48.982Z,6.72
2023-01-12T09:58:39.292Z,6.78
2023-01-12T10:01:24.197Z,6.84
2023-01-12T10:03:57.375Z,6.86
2023-01-12T10:06:25.360Z,6.91
2023-01-12T10:08:57.997Z,7.01
2023-01-12T10:11:34.481Z,7.12
2023-01-12T10:14:26.919Z,7.19
2023-01-12T10:17:07.823Z,7.16
2023-01-12T10:19:45.217Z,7.08
2023-01-12T10:22:37.028Z,7.01
2023-01-12T10:25:22.554Z,7.04
2023-01-12T10:27:52.620Z,7.10
2023-01-12T10:30:25.805Z,7.03
2023-01-12T10:32:55.065Z,7.11
2023-01-12T10:35:25.324Z,7.19
2023-01-12T10:37:54.922Z,7.24
2023-01-12T10:40:27.836Z,7.28
2023-01-12T10:43:22.285Z,7.24
2023-01-12T10:46:06.112Z,7.26
2023-01-12T10:48:35.739Z,7.27
2023-01-12T10:51:05.636Z,7.20
2023-01-12T10:53:39.506Z,6.97
2023-01-12T10:56:24.776Z,6.91
2023-01-12T10:58:58.830Z,7.00
2023-01-12T11:01:26.879Z,7.17
2023-01-12T11:04:06.009Z,7.32
2023-01-12T11:06:33.944Z,7.32
2023-01-12T11:09:18.887Z,7.26
2023-01-12T11:11:46.941Z,7.34
2023-01-12T11:14:24.849Z,7.33
2023-01-12T11:16:53.027Z,7.36
2023-01-12T11:19:28.347Z,7.46
2023-01-12T11:22:01.510Z,7.49
2023-01-12T11:24:39.237Z,7.25
2023-01-12T11:27:17.561Z,7.18
2023-01-12T11:29:55.269Z,7.14
2023-01-12T11:32:36.871Z,7.09
2023-01-12T11:35:29.083Z,7.06
2023-01-12T11:38:00.917Z,7.02
2023-01-12T11:40:32.696Z,7.06
2023-01-12T11:43:24.644Z,7.21
2023-01-12T11:45:56.036Z,7.20
2023-01-12T11:48:31.799Z,7.17
2023-01-12T11:51:01.808Z,7.14
2023-01-12T11:53:29.749Z,7.13
2023-01-12T11:56:09.335Z,7.10
2023-01-12T11:58:50.218Z,7.10
2023-01-12T12:01:25.577Z,7.07
2023-01-12T12:03:59.935Z,7.07
2023-01-12T12:06:57.430Z,6.96
2023-01-12T12:10:00.711Z,6.99
2023-01-12T12:12:42.693Z,7.00
2023-01-12T12:15:27.693Z,7.02
2023-01-12T12:18:12.572Z,7.02
2023-01-12T12:20:46.297Z,6.98
2023-01-12T12:23:27.398Z,6.98
2023-01-12T12:26:03.679Z,6.97
2023-01-12T12:28:48.330Z,6.97
2023-01-12T12:31:33.507Z,6.98
2023-01-12T12:34:19.908Z,7.00
2023-01-12T12:36:54.853Z,7.03
2023-01-12T12:39:43.866Z,7.06
2023-01-12T12:42:49.387Z,7.09
2023-01-12T12:45:28.336Z,7.15
2023-01-12T12:48:01.717Z,7.18
2023-01-12T12:50:32.733Z,7.23
2023-01-12T12:53:12.026Z,7.25
2023-01-12T12:55:42.896Z,7.38
2023-01-12T12:58:27.476Z,7.43
2023-01-12T13:00:56.861Z,7.54
2023-01-12T13:03:47.033Z,7.66
2023-01-12T13:06:21.035Z,7.74
2023-01-12T13:08:50.944Z,7.83
2023-01-12T13:11:21.371Z,7.76
2023-01-12T13:14:17.598Z,7.94
2023-01-12T13:16:51.755Z,8.03
2023-01-12T13:19:38.053Z,8.06
2023-01-12T13:22:28.507Z,8.05
2023-01-12T13:24:57.221Z,8.07
2023-01-12T13:27:55.548Z,8.12
2023-01-12T13:30:38.613Z,8.08
2023-01-12T13:33:23.865Z,7.99
2023-01-12T13:36:11.728Z,7.94
2023-01-12T13:39:02.682Z,8.06
2023-01-12T13:41:50.062Z,8.17
2023-01-12T13:44:25.387Z,8.21
2023-01-12T13:47:02.390Z,8.29
2023-01-12T13:49:32.939Z,8.42
2023-01-12T13:52:02.921Z,8.59
2023-01-12T13:54:31.340Z,8.73
2023-01-12T13:57:01.202Z,8.80
2023-01-12T13:59:31.010Z,8.85
2023-01-12T14:01:59.078Z,8.94
2023-01-12T14:04:46.002Z,8.75
2023-01-12T14:07:25.193Z,8.54
2023-01-12T14:10:06.913Z,8.30
2023-01-12T14:12:46.682Z,8.15
2023-01-12T14:15:45.513Z,8.03
2023-01-12T14:18:16.196Z,7.89
2023-01-12T14:20:49.661Z,7.83
2023-01-12T14:23:23.877Z,7.84
2023-01-12T14:26:14.615Z,7.88
2023-01-12T14:28:44.157Z,7.84
2023-01-12T14:31:23.095Z,7.73
2023-01-12T14:33:53.573Z,7.65
2023-01-12T14:36:25.443Z,7.62
2023-01-12T14:38:54.388Z,7.60
2023-01-12T14:41:42.417Z,7.57
2023-01-12T14:44:36.445Z,7.53
2023-01-12T14:47:06.696Z,7.44
2023-01-12T14:49:36.628Z,7.20
2023-01-12T14:52:23.072Z,7.13
2023-01-12T14:54:52.095Z,7.01
2023-01-12T14:57:24.138Z,6.87
2023-01-12T14:59:52.532Z,6.82
2023-01-12T15:02:36.652Z,6.80
2023-01-12T15:05:18.847Z,6.78
2023-01-12T15:07:55.732Z,6.75
2023-01-12T15:10:30.530Z,6.73
2023-01-12T15:13:00.477Z,6.64
2023-01-12T15:15:50.992Z,6.52
2023-01-12T15:18:37.581Z,6.48
2023-01-12T15:21:23.514Z,6.39
2023-01-12T15:24:09.421Z,6.32
2023-01-12T15:26:37.320Z,6.33
2023-01-12T15:29:05.182Z,6.28
2023-01-12T15:31:35.886Z,6.20
2023-01-12T15:34:06.684Z,6.11
2023-01-12T15:36:34.492Z,6.02
2023-01-12T15:39:02.289Z,5.83
2023-01-12T15:41:49.950Z,5.89
2023-01-12T15:44:19.654Z,5.85
2023-01-12T15:46:48.283Z,5.81
2023-01-12T15:49:17.734Z,5.83
2023-01-12T15:51:48.935Z,5.89
2023-01-12T15:54:19.011Z,5.92
2023-01-12T15:56:47.887Z,5.93
2023-01-12T15:59:16.469Z,5.93
2023-01-12T16:01:47.925Z,5.84
2023-01-12T16:07:06.812Z,5.83
2023-01-12T16:09:34.743Z,5.90
2023-01-12T16:12:02.832Z,6.02
2023-01-12T16:14:30.648Z,6.12
2023-01-12T16:16:58.466Z,6.20
2023-01-12T16:19:28.215Z,6.27
2023-01-12T16:21:56.143Z,6.24
2023-01-12T16:24:26.628Z,6.25
2023-01-12T16:26:54.881Z,6.11
2023-01-12T16:29:23.932Z,6.01
2023-01-12T16:31:52.047Z,5.98
2023-01-12T16:34:22.713Z,6.06
2023-01-12T16:36:52.277Z,6.13
2023-01-12T16:39:20.155Z,6.21
2023-01-12T16:41:49.079Z,6.19
2023-01-12T16:44:16.982Z,6.31
2023-01-12T16:46:44.842Z,6.34
2023-01-12T16:49:12.648Z,6.38
2023-01-12T16:51:40.527Z,6.41
2023-01-12T16:54:09.733Z,6.35
2023-01-12T16:56:37.608Z,6.18
2023-01-12T16:59:05.579Z,5.99
2023-01-12T17:01:33.539Z,5.79
2023-01-12T17:04:02.493Z,5.69
2023-01-12T17:06:31.225Z,5.78
2023-01-12T17:09:02.220Z,5.93
2023-01-12T17:11:32.749Z,6.06
2023-01-12T17:14:00.821Z,6.15
2023-01-12T17:16:29.413Z,6.20
2023-01-12T17:18:57.423Z,6.28
2023-01-12T17:21:25.511Z,6.35
2023-01-12T17:23:53.510Z,6.39
2023-01-12T17:26:21.590Z,6.42
2023-01-12T17:28:50.895Z,6.43
2023-01-12T17:31:20.582Z,6.44
2023-01-12T17:33:50.057Z,6.41
2023-01-12T17:36:18.787Z,6.39
2023-01-12T17:38:46.649Z,6.40
2023-01-12T17:41:30.436Z,6.40
2023-01-12T17:44:01.694Z,6.43
2023-01-12T17:46:29.915Z,6.42
2023-01-12T17:48:58.783Z,6.44
2023-01-12T17:51:27.076Z,6.42
2023-01-12T17:53:55.040Z,6.40
2023-01-12T17:56:23.066Z,6.33
2023-01-12T17:58:51.418Z,6.28
2023-01-12T18:01:21.787Z,6.29
2023-01-12T18:03:49.845Z,6.31
2023-01-12T18:06:25.972Z,6.34
2023-01-12T18:08:56.720Z,6.07
2023-01-12T18:11:24.860Z,6.10
2023-01-12T18:13:53.188Z,6.01
2023-01-12T18:16:22.983Z,5.98
2023-01-12T18:18:51.314Z,5.88
2023-01-12T18:21:21.563Z,5.84
2023-01-12T18:23:50.212Z,5.87
2023-01-12T18:26:20.932Z,5.85
2023-01-12T18:28:49.035Z,5.79
2023-01-12T18:31:19.007Z,5.75
2023-01-12T18:33:49.082Z,5.77
2023-01-12T18:36:20.792Z,5.70
2023-01-12T18:38:50.939Z,5.67
2023-01-12T18:41:37.893Z,5.65
2023-01-12T18:44:06.379Z,5.70
2023-01-12T18:46:49.321Z,5.62
2023-01-12T18:49:22.528Z,5.61
2023-01-12T18:52:08.028Z,5.51
2023-01-12T18:54:36.309Z,5.47
2023-01-12T18:57:04.387Z,5.48
2023-01-12T18:59:33.267Z,5.48
2023-01-12T19:02:01.256Z,5.43
2023-01-12T19:04:49.139Z,5.43
2023-01-12T19:07:19.124Z,5.46
2023-01-12T19:09:47.816Z,5.40
2023-01-12T19:12:15.701Z,5.46
2023-01-12T19:14:57.609Z,5.41
2023-01-12T19:17:29.713Z,5.38
2023-01-12T19:20:00.650Z,5.32
2023-01-12T19:22:46.657Z,5.34
2023-01-12T19:25:33.671Z,5.39
2023-01-12T19:28:19.353Z,5.44
2023-01-12T19:30:47.955Z,5.49
2023-01-12T19:33:16.242Z,5.52
2023-01-12T19:35:47.216Z,5.53
2023-01-12T19:38:15.929Z,5.53
2023-01-12T19:40:47.741Z,5.53
2023-01-12T19:43:19.706Z,5.53
2023-01-12T19:45:49.606Z,5.56
2023-01-12T19:48:20.632Z,5.64
2023-01-12T19:50:50.191Z,5.56
2023-01-12T19:53:20.755Z,5.66
2023-01-12T19:55:49.875Z,5.67
2023-01-12T19:58:18.098Z,5.84
2023-01-12T20:00:46.539Z,5.94
2023-01-12T20:03:16.128Z,6.00
2023-01-12T20:05:47.191Z,6.03
2023-01-12T20:08:16.580Z,6.03
2023-01-12T20:10:45.149Z,6.05
2023-01-12T20:13:14.748Z,6.10
2023-01-12T20:15:43.424Z,6.14
2023-01-12T20:18:13.686Z,6.09
2023-01-12T20:20:42.705Z,6.06
2023-01-12T20:23:11.506Z,5.92
2023-01-12T20:25:42.162Z,5.80
2023-01-12T20:28:13.106Z,5.82
2023-01-12T20:30:41.650Z,5.97
2023-01-12T20:33:10.305Z,5.94
2023-01-12T20:35:39.248Z,5.85
2023-01-12T20:38:13.148Z,5.82
2023-01-12T20:40:42.497Z,5.83
2023-01-12T20:43:10.440Z,5.83
2023-01-12T20:45:38.309Z,5.81
2023-01-12T20:48:06.167Z,5.90
2023-01-12T20:50:33.985Z,5.96
2023-01-12T20:53:01.883Z,6.01
2023-01-12T20:55:29.799Z,6.01
2023-01-12T20:57:59.131Z,6.11
2023-01-12T21:00:28.707Z,6.15
2023-01-12T21:02:56.501Z,6.15
2023-01-12T21:05:24.625Z,6.15
2023-01-12T21:08:00.057Z,6.13
2023-01-12T21:10:34.986Z,6.07
2023-01-12T21:13:04.575Z,5.98
2023-01-12T21:15:32.679Z,5.86
2023-01-12T21:18:00.648Z,5.73
2023-01-12T21:20:28.599Z,5.85
2023-01-12T21:22:56.559Z,5.88
2023-01-12T21:25:27.855Z,5.82
2023-01-12T21:27:56.243Z,5.85
2023-01-12T21:30:35.394Z,5.93
2023-01-12T21:33:04.459Z,5.98
2023-01-12T21:35:32.529Z,5.99
2023-01-12T21:38:00.455Z,5.95
2023-01-12T21:40:28.591Z,5.88
2023-01-12T21:43:13.086Z,5.89
2023-01-12T21:45:47.500Z,5.81
2023-01-12T21:48:17.467Z,6.02
2023-01-12T21:50:45.490Z,6.05
2023-01-12T21:53:15.561Z,6.13
2023-01-12T21:55:43.571Z,6.11
2023-01-12T21:58:11.441Z,6.13
2023-01-12T22:00:39.307Z,6.11
2023-01-12T22:03:08.585Z,6.16
2023-01-12T22:05:36.489Z,6.18
2023-01-12T22:08:04.500Z,6.19
2023-01-12T22:10:32.379Z,6.20
2023-01-12T22:13:02.900Z,6.21
2023-01-12T22:15:31.852Z,6.11
2023-01-12T22:18:00.661Z,6.22
2023-01-12T22:20:29.933Z,6.21
2023-01-12T22:22:58.014Z,6.21
2023-01-12T22:25:27.183Z,6.13
2023-01-12T22:27:58.156Z,6.07
2023-01-12T22:30:26.105Z,6.06
2023-01-12T22:32:55.609Z,5.98
2023-01-12T22:35:26.393Z,6.03
2023-01-12T22:37:55.975Z,6.02
2023-01-12T22:40:23.830Z,6.06
2023-01-12T22:43:09.117Z,5.95
2023-01-12T22:45:37.597Z,5.90
2023-01-12T22:48:06.223Z,5.95
2023-01-12T22:50:34.154Z,5.98
2023-01-12T22:53:03.443Z,6.01
2023-01-12T22:55:31.504Z,6.05
2023-01-12T22:57:59.490Z,6.13
2023-01-12T23:00:27.300Z,6.17
2023-01-12T23:03:01.769Z,6.18
2023-01-12T23:05:33.279Z,6.20
2023-01-12T23:08:01.580Z,6.21
2023-01-12T23:10:30.927Z,6.09
2023-01-12T23:13:15.618Z,6.22
2023-01-12T23:15:46.676Z,6.19
2023-01-12T23:18:15.511Z,6.19
2023-01-12T23:20:43.585Z,6.22
2023-01-12T23:23:12.273Z,6.23
2023-01-12T23:25:44.337Z,6.23
2023-01-12T23:28:13.872Z,6.22
2023-01-12T23:30:42.161Z,6.22
2023-01-12T23:33:10.670Z,6.21
2023-01-12T23:35:40.499Z,6.10
2023-01-12T23:38:09.329Z,6.07
2023-01-12T23:40:37.154Z,6.10
2023-01-12T23:43:06.277Z,6.13
2023-01-12T23:45:34.474Z,5.98
2023-01-12T23:48:02.321Z,6.11
2023-01-12T23:50:30.106Z,6.07
2023-01-12T23:52:57.865Z,6.03
2023-01-12T23:55:26.940Z,6.03
2023-01-12T23:57:54.878Z,6.01
